• Join FlightAware (Why Join?)
  • Login
  • US Flag 
10:16PM EST


 

Airport Tracker/Info


-or-


 

Live Flight TrackerFlight Track Log ✈ ACA831 ✈ 05-May-2013 ✈ LSGG / GVA - CYUL

Flight Track Log - Related Links

Times and Time Zones

All times are in EDT time to prevent confusion due to time zone crossing. See the ACA831 flight status page for this flight to view local times or setup timezone preferences in your user account.

Time Position Orientation Groundspeed Altitude Reporting Facility
EDT Latitude Longitude Course Direction KTS MPH feet Rate Location/Type
06:25AM 46.2470 6.1230 46° Northeast 171 197 2,000  Level FlightAware
06:25AM 46.2640 6.1480 45° Northeast 174 200 3,400 2,700 Climbing FlightAware
06:25AM 46.2690 6.1560 48° Northeast 170 196 3,800 2,100 Climbing FlightAware
06:26AM 46.2870 6.1820 45° Northeast 186 214 4,800 1,860 Climbing FlightAware
06:26AM 46.3090 6.2140 45° Northeast 229 264 5,700 1,740 Climbing FlightAware
06:27AM 46.3250 6.2380 46° Northeast 245 282 6,400 2,400 Climbing FlightAware
06:27AM 46.3520 6.2790 46° Northeast 268 308 7,900 3,120 Climbing FlightAware
06:28AM 46.3760 6.3110 43° Northeast 274 315 9,300 3,060 Climbing FlightAware
06:28AM 46.3880 6.3180 22° Northeast 275 316 9,700 2,700 Climbing FlightAware
06:28AM 46.4020 6.3200 North 289 333 10,200 2,040 Climbing FlightAware
06:28AM 46.4360 6.3060 344° North 312 359 10,900 1,980 Climbing FlightAware
06:29AM 46.4940 6.2670 335° Northwest 346 398 12,400 2,520 Climbing FlightAware
06:29AM 46.5250 6.2140 310° West 354 407 13,900 3,000 Climbing FlightAware
06:30AM 46.5600 6.1320 302° West 364 419 15,900 2,760 Climbing FlightAware
06:31AM 46.5960 6.0440 301° West 383 441 17,600 2,100 Climbing FlightAware
06:32AM 46.6390 5.9400 301° West 412 474 18,900 2,040 Climbing FlightAware
06:32AM 46.6810 5.8400 302° West 427 491 20,500 2,220 Climbing FlightAware
06:33AM 46.7240 5.7340 301° West 436 502 22,100 2,160 Climbing FlightAware
06:34AM 46.7670 5.6290 301° West 445 512 23,600 2,160 Climbing FlightAware
06:34AM 46.8130 5.5140 300° West 451 519 25,200 2,100 Climbing FlightAware
06:35AM 46.8570 5.4080 301° West 458 527 26,600 1,920 Climbing FlightAware
06:36AM 46.9010 5.2990 301° West 466 536 27,800 1,920 Climbing FlightAware
06:36AM 46.9610 5.1900 309° West 468 539 29,400 2,100 Climbing FlightAware
06:37AM 47.0200 5.0990 314° West 466 536 30,800 1,860 Climbing FlightAware
06:38AM 47.0760 5.0170 315° West 463 533 31,900 1,620 Climbing FlightAware
06:39AM 47.1460 4.9150 315° West 463 533 33,100 1,500 Climbing FlightAware
06:39AM 47.2030 4.8320 315° West 464 534 33,900 720 Climbing FlightAware
06:40AM 47.2590 4.7500 315° West 466 536 34,000 60 Climbing FlightAware
06:41AM 47.3420 4.6280 315° West 468 539 34,000  Level FlightAware
06:41AM 47.4030 4.5380 315° West 473 544 34,000  Level FlightAware
06:42AM 47.4690 4.4390 315° West 477 549 34,000  Level FlightAware
06:43AM 47.5320 4.3440 315° West 479 551 34,000  Level FlightAware
06:43AM 47.6030 4.2380 315° West 481 554 34,000  Level FlightAware
06:44AM 47.6660 4.1430 315° West 482 555 34,000  Level FlightAware
06:45AM 47.7280 4.0500 315° West 483 556 34,000  Level FlightAware
06:46AM 47.7960 3.9460 314° West 482 555 34,000  Level FlightAware
06:46AM 47.8076 3.9288 315° West 484 557 34,000  Level FlightAware ADS-B
06:46AM 47.8618 3.8462 314° West 483 556 34,000  Level FlightAware ADS-B
06:47AM 47.9122 3.7691 314° West 482 555 34,000  Level FlightAware ADS-B
06:47AM 47.9610 3.6941 314° West 483 556 34,000  Level FlightAware ADS-B
06:48AM 48.0122 3.6154 314° West 483 556 34,000  Level FlightAware ADS-B
06:48AM 48.0635 3.5362 314° West 482 555 34,000  Level FlightAware ADS-B
06:49AM 48.1250 3.4410 314° West 483 556 34,000  Level FlightAware
06:50AM 48.1870 3.3450 314° West 481 554 34,000  Level FlightAware
06:50AM 48.2550 3.2390 314° West 480 552 34,000  Level FlightAware
06:51AM 48.2955 3.1753 314° West 479 551 34,000  Level FlightAware ADS-B
06:51AM 48.3314 3.1190 314° West 478 550 34,000  Level FlightAware ADS-B
06:51AM 48.3477 3.0873 308° West 480 552 34,000  Level FlightAware ADS-B
06:52AM 48.3984 2.8983 292° West 479 551 34,000  Level FlightAware ADS-B
06:53AM 48.4172 2.8006 286° West 479 551 34,000  Level FlightAware ADS-B
06:54AM 48.4397 2.6851 286° West 480 552 34,000  Level FlightAware ADS-B
06:54AM 48.4597 2.5838 287° West 481 554 34,000  Level FlightAware ADS-B
06:55AM 48.4794 2.4858 287° West 482 555 34,000  Level FlightAware ADS-B
06:55AM 48.5068 2.3485 287° West 483 556 34,000  Level FlightAware ADS-B
06:56AM 48.5262 2.2493 286° West 485 558 34,000  Level FlightAware ADS-B
06:56AM 48.5458 2.1492 287° West 486 559 34,000 -1,860 Level FlightAware ADS-B
06:57AM 48.5575 2.0884 287° West 462 532 32,500  Descending FlightAware UK
06:57AM 48.5646 2.0518 287° West 486 559 34,000  Climbing FlightAware ADS-B
06:57AM 48.5771 1.9905 287° West 462 532 32,500  Descending FlightAware UK
06:57AM 48.5839 1.9517 287° West 486 559 34,000  Climbing FlightAware ADS-B
06:58AM 48.5958 1.8937 287° West 458 527 32,500  Descending FlightAware UK
06:58AM 48.6029 1.8518 287° West 487 560 34,000 1,860 Climbing FlightAware ADS-B
06:58AM 48.6243 1.7377 286° West 487 560 34,000 -1,740 Level FlightAware ADS-B
06:59AM 48.6357 1.6783 286° West 460 529 32,500  Descending FlightAware UK
06:59AM 48.6477 1.6141 286° West 487 560 34,000  Climbing FlightAware ADS-B
06:59AM 48.6576 1.5611 286° West 452 520 32,500  Descending FlightAware UK
07:00AM 48.6671 1.5103 286° West 487 560 34,000 1,920 Climbing FlightAware ADS-B
07:00AM 48.6856 1.4103 286° West 488 562 34,000 -1,920 Level FlightAware ADS-B
07:00AM 48.6975 1.3445 286° West 448 516 32,400  Descending FlightAware UK
07:01AM 48.7030 1.3160 286° West 489 563 34,000 4,140 Climbing FlightAware
07:01AM 48.7113 1.2705 285° West 490 564 34,000 -3,480 Level FlightAware ADS-B
07:01AM 48.7230 1.2064 285° West 446 513 32,400  Descending FlightAware UK
07:01AM 48.7290 1.1710 285° West 492 566 34,000 180 Climbing FlightAware
07:02AM 48.7408 1.1076 285° West 448 516 32,500 -2,520 Descending FlightAware UK
07:02AM 48.7518 1.0477 285° West 450 518 32,500 4,080 Level FlightAware UK
07:02AM 48.7530 1.0430 285° West 494 568 34,000  Climbing FlightAware
07:02AM 48.7666 0.9678 285° West 448 516 32,500 -2,400 Descending FlightAware UK
07:03AM 48.7775 0.9076 285° West 450 518 32,500 3,600 Level FlightAware UK
07:03AM 48.7800 0.8940 285° West 497 572 34,000  Climbing FlightAware
07:03AM 48.7918 0.8268 285° West 456 525 32,500 -2,580 Descending FlightAware UK
07:03AM 48.8025 0.7669 285° West 456 525 32,500 3,900 Level FlightAware UK
07:03AM 48.8030 0.7640 285° West 498 573 34,000  Climbing FlightAware
07:04AM 48.8240 0.6453 285° West 458 527 32,500  Descending FlightAware UK
07:04AM 48.8320 0.6030 285° West 499 574 34,000  Climbing FlightAware
07:04AM 48.8420 0.5440 285° West 462 532 32,500 -2,760 Descending FlightAware UK
07:05AM 48.8527 0.4839 285° West 464 534 32,500 3,720 Level FlightAware UK
07:05AM 48.8550 0.4730 285° West 498 573 34,000  Climbing FlightAware
07:05AM 48.8773 0.3434 285° West 464 534 32,500  Descending FlightAware UK
07:06AM 48.8790 0.3310 285° West 496 571 34,000  Climbing FlightAware
07:06AM 48.8983 0.2222 285° West 462 532 32,500  Descending FlightAware UK
07:06AM 48.9040 0.1870 285° West 493 567 34,000 1,620 Climbing FlightAware
07:07AM 48.9270 0.0560 285° West 490 564 34,000 -1,320 Level FlightAware
07:07AM 48.9463 -0.0570 285° West 454 522 32,500  Descending FlightAware UK
07:08AM 48.9540 -0.1000 285° West 487 560 34,000  Climbing FlightAware
07:08AM 48.9637 -0.1559 285° West 450 518 32,500 -2,940 Descending FlightAware UK
07:08AM 48.9741 -0.2150 285° West 450 518 32,400 3,600 Descending FlightAware UK
07:08AM 48.9770 -0.2320 285° West 484 557 34,000 4,320 Climbing FlightAware
07:09AM 48.9870 -0.2855 286° West 488 562 34,000 -1,680 Level FlightAware ADS-B
07:09AM 49.0125 -0.4299 286° West 448 516 32,400  Descending FlightAware UK
07:10AM 49.0260 -0.5050 286° West 481 554 34,000 60 Climbing FlightAware
07:10AM 49.0441 -0.6050 286° West 452 520 32,500  Descending FlightAware UK
07:10AM 49.0500 -0.6360 286° West 479 551 34,000  Climbing FlightAware
07:11AM 49.0688 -0.7411 286° West 448 516 32,500  Descending FlightAware UK
07:11AM 49.0770 -0.7840 286° West 476 548 34,000 1,620 Climbing FlightAware
07:12AM 49.1010 -0.9140 286° West 475 547 34,000 -1,500 Level FlightAware
07:12AM 49.1152 -0.9917 286° West 448 516 32,500  Descending FlightAware UK
07:13AM 49.1250 -1.0400 286° West 475 547 34,000  Climbing FlightAware
07:13AM 49.1403 -1.1260 286° West 448 516 32,500 -2,160 Descending FlightAware UK
07:13AM 49.1511 -1.1836 286° West 448 516 32,500 4,260 Level FlightAware UK
07:13AM 49.1520 -1.1830 286° West 473 544 34,000  Climbing FlightAware
07:14AM 49.1621 -1.2413 286° West 448 516 32,500 -2,760 Descending FlightAware UK
07:14AM 49.1707 -1.2998 283° West 448 516 32,500 3,600 Level FlightAware UK
07:14AM 49.1720 -1.3050 283° West 475 547 34,000  Climbing FlightAware
07:15AM 49.1912 -1.4362 283° West 448 516 32,500  Descending FlightAware UK
07:15AM 49.1920 -1.4420 283° West 474 545 34,000 -300 Climbing FlightAware
07:15AM 49.2032 -1.5145 283° West 448 516 32,400 -2,460 Descending FlightAware UK
07:15AM 49.2120 -1.5732 283° West 448 516 32,500 3,660 Climbing FlightAware UK
07:15AM 49.2140 -1.5870 283° West 472 543 34,000  Climbing FlightAware
07:16AM 49.2356 -1.7286 283° West 448 516 32,500  Descending FlightAware UK
07:16AM 49.2330 -1.7130 283° West 471 542 34,000  Climbing FlightAware
07:16AM 49.2444 -1.7871 283° West 448 516 32,500  Descending FlightAware UK
07:17AM 49.2570 -1.8660 283° West 474 545 34,000 1,440 Climbing FlightAware
07:17AM 49.2740 -1.9820 283° West 474 545 34,000  Level FlightAware
07:18AM 49.2950 -2.1230 283° West 473 544 34,000  Level FlightAware
07:19AM 49.3120 -2.2410 283° West 474 545 34,000 -1,680 Level FlightAware
07:19AM 49.3258 -2.3351 283° West 454 522 32,500  Descending FlightAware UK
07:20AM 49.3350 -2.3990 283° West 473 544 34,000  Climbing FlightAware
07:20AM 49.3543 -2.5306 283° West 454 522 32,500  Descending FlightAware UK
07:20AM 49.3560 -2.5440 283° West 472 543 34,000  Climbing FlightAware
07:21AM 49.3680 -2.6285 283° West 454 522 32,500  Descending FlightAware UK
07:21AM 49.3740 -2.6720 283° West 471 542 34,000  Climbing FlightAware
07:21AM 49.3847 -2.7457 283° West 452 520 32,500 -2,700 Descending FlightAware UK
07:22AM 49.3930 -2.8043 282° West 454 522 32,500 3,060 Level FlightAware UK
07:22AM 49.3960 -2.8210 282° West 469 540 34,000  Climbing FlightAware
07:22AM 49.4122 -2.9399 282° West 454 522 32,500  Descending FlightAware UK
07:22AM 49.4140 -2.9510 282° West 469 540 34,000  Climbing FlightAware
07:23AM 49.4230 -3.0171 282° West 452 520 32,500 -2,340 Descending FlightAware UK
07:23AM 49.4338 -3.0955 282° West 452 520 32,500 3,600 Level FlightAware UK
07:23AM 49.4320 -3.0820 282° West 467 537 34,000  Climbing FlightAware
07:23AM 49.4418 -3.1531 282° West 452 520 32,500  Descending FlightAware UK
07:24AM 49.4520 -3.2280 282° West 466 536 34,000  Climbing FlightAware
07:24AM 49.4630 -3.3083 282° West 450 518 32,500 -2,400 Descending FlightAware UK
07:24AM 49.4709 -3.3664 282° West 450 518 32,500 4,500 Level FlightAware UK
07:24AM 49.4700 -3.3610 282° West 465 535 34,000  Climbing FlightAware
07:25AM 49.4865 -3.4819 282° West 450 518 32,500  Descending FlightAware UK
07:25AM 49.4890 -3.5040 282° West 464 534 34,000  Climbing FlightAware
07:26AM 49.5022 -3.5979 282° West 448 516 32,500  Descending FlightAware UK
07:26AM 49.5070 -3.6340 282° West 464 534 34,000  Climbing FlightAware
07:26AM 49.5175 -3.7139 282° West 448 516 32,500  Descending FlightAware UK
07:27AM 49.5240 -3.7610 282° West 464 534 34,000  Climbing FlightAware
07:27AM 49.5327 -3.8299 282° West 450 518 32,500 -2,580 Descending FlightAware UK
07:27AM 49.5403 -3.8880 281° West 448 516 32,500 3,180 Level FlightAware UK
07:27AM 49.5430 -3.9080 281° West 464 534 34,000 2,220 Climbing FlightAware
07:28AM 49.5550 -3.9980 282° West 463 533 34,000  Level FlightAware
07:28AM 49.5680 -4.1010 281° West 463 533 34,000 -1,380 Level FlightAware
07:29AM 49.5851 -4.2363 281° West 450 518 32,500  Descending FlightAware UK
07:29AM 49.5850 -4.2310 281° West 463 533 34,000  Climbing FlightAware
07:29AM 49.5950 -4.3139 281° West 448 516 32,500 -2,340 Descending FlightAware UK
07:30AM 49.6025 -4.3721 281° West 448 516 32,500 3,720 Level FlightAware UK
07:30AM 49.6040 -4.3840 281° West 464 534 34,000  Climbing FlightAware
07:30AM 49.6173 -4.4888 281° West 448 516 32,500 -1,680 Descending FlightAware UK
07:31AM 49.6271 -4.5666 281° West 448 516 32,500  Level FlightAware UK
07:31AM 49.6343 -4.6249 281° West 450 518 32,500  Level FlightAware UK
07:31AM 49.6414 -4.6833 281° West 450 518 32,500  Level FlightAware UK
07:32AM 49.6485 -4.7416 281° West 450 518 32,500  Level FlightAware UK
07:32AM 49.6580 -4.8188 281° West 448 516 32,500 2,100 Level FlightAware UK
07:32AM 49.6620 -4.8510 281° West 464 534 34,000 1,320 Climbing FlightAware
07:33AM 49.6750 -4.9570 281° West 470 541 33,600 -2,880 Descending FlightAware
07:33AM 49.6844 -5.0342 281° West 458 527 31,700 -3,720 Descending FlightAware UK
07:33AM 49.6915 -5.0934 280° West 458 527 31,400 3,540 Descending FlightAware UK
07:33AM 49.6910 -5.0870 280° West 464 534 33,000 240 Climbing FlightAware
07:34AM 49.7004 -5.1715 280° West 452 520 31,500 -2,400 Descending FlightAware UK
07:34AM 49.7071 -5.2289 280° West 450 518 31,500 4,500 Level FlightAware UK
07:34AM 49.7060 -5.2190 280° West 456 525 33,000  Climbing FlightAware
07:34AM 49.7161 -5.3048 280° West 448 516 31,500 -2,280 Descending FlightAware UK
07:35AM 49.7228 -5.3619 280° West 448 516 31,500 3,900 Level FlightAware UK
07:35AM 49.7220 -5.3560 280° West 452 520 33,000  Climbing FlightAware
07:35AM 49.7339 -5.4570 280° West 450 518 31,500  Descending FlightAware UK
07:35AM 49.7380 -5.4950 280° West 453 521 33,000  Climbing FlightAware
07:36AM 49.7452 -5.5523 280° West 450 518 31,500 -2,760 Descending FlightAware UK
07:36AM 49.7518 -5.6096 280° West 452 520 31,500 3,600 Level FlightAware UK
07:36AM 49.7530 -5.6190 280° West 452 520 33,000  Climbing FlightAware
07:36AM 49.7604 -5.6861 280° West 454 522 31,500 -2,580 Descending FlightAware UK
07:37AM 49.7668 -5.7434 280° West 450 518 31,500 3,180 Level FlightAware UK
07:37AM 49.7700 -5.7680 280° West 452 520 33,000  Climbing FlightAware
07:37AM 49.7777 -5.8388 280° West 452 520 31,500 -2,400 Descending FlightAware UK
07:38AM 49.7840 -5.8955 280° West 452 520 31,500 4,500 Level FlightAware UK
07:38AM 49.7840 -5.8960 280° West 452 520 33,000  Climbing FlightAware
07:38AM 49.7904 -5.9527 280° West 452 520 31,500 -2,700 Descending FlightAware UK
07:38AM 49.7968 -6.0100 280° West 452 520 31,500 3,060 Level FlightAware UK
07:38AM 49.7990 -6.0340 280° West 452 520 33,000  Climbing FlightAware
07:39AM 49.8074 -6.1054 280° West 450 518 31,500 -2,460 Descending FlightAware UK
07:39AM 49.8137 -6.1626 280° West 448 516 31,500 4,260 Level FlightAware UK
07:39AM 49.8130 -6.1520 280° West 452 520 33,000  Climbing FlightAware
07:39AM 49.8200 -6.2198 280° West 448 516 31,500 -2,760 Descending FlightAware UK
07:40AM 49.8261 -6.2771 279° West 448 516 31,500 3,000 Level FlightAware UK
07:40AM 49.8290 -6.2990 279° West 452 520 33,000  Climbing FlightAware
07:40AM 49.8365 -6.3727 279° West 452 520 31,500 -2,520 Descending FlightAware UK
07:40AM 49.8426 -6.4301 279° West 452 520 31,500 4,080 Level FlightAware UK
07:40AM 49.8420 -6.4260 279° West 453 521 33,000  Climbing FlightAware
07:41AM 49.8508 -6.5069 279° West 450 518 31,500 -2,400 Descending FlightAware UK
07:41AM 49.8570 -6.5644 280° West 450 518 31,500 4,500 Level FlightAware UK
07:41AM 49.8560 -6.5570 280° West 454 522 33,000  Climbing FlightAware
07:41AM 49.8633 -6.6220 280° West 450 518 31,500 -2,700 Descending FlightAware UK
07:42AM 49.8693 -6.6797 279° West 450 518 31,500 3,060 Level FlightAware UK
07:42AM 49.8720 -6.7020 279° West 454 522 33,000  Climbing FlightAware
07:42AM 49.8793 -6.7760 279° West 452 520 31,500 -2,460 Descending FlightAware UK
07:42AM 49.8853 -6.8338 279° West 452 520 31,500 4,260 Level FlightAware UK
07:42AM 49.8850 -6.8290 279° West 455 524 33,000  Climbing FlightAware
07:43AM 49.8913 -6.8917 279° West 450 518 31,500 -2,760 Descending FlightAware UK
07:43AM 49.8972 -6.9497 279° West 452 520 31,500 3,000 Level FlightAware UK
07:43AM 49.8990 -6.9700 279° West 456 525 33,000  Climbing FlightAware
07:44AM 49.9071 -7.0458 279° West 452 520 31,500 -2,520 Descending FlightAware UK
07:44AM 49.9131 -7.1039 279° West 452 520 31,500 4,080 Level FlightAware UK
07:44AM 49.9130 -7.1030 279° West 457 526 33,000  Climbing FlightAware
07:44AM 49.9209 -7.1814 279° West 452 520 31,500 -2,400 Descending FlightAware UK
07:45AM 49.9267 -7.2396 279° West 452 520 31,500 4,500 Level FlightAware UK
07:45AM 49.9250 -7.2280 279° West 457 526 33,000  Climbing FlightAware
07:45AM 49.9325 -7.2979 279° West 452 520 31,500 -2,700 Descending FlightAware UK
07:45AM 49.9382 -7.3562 279° West 452 520 31,500 3,060 Level FlightAware UK
07:45AM 49.9410 -7.3890 279° West 458 527 33,000  Climbing FlightAware
07:46AM 49.9477 -7.4535 279° West 452 520 31,500 -2,460 Descending FlightAware UK
07:46AM 49.9534 -7.5119 279° West 452 520 31,500 4,260 Level FlightAware UK
07:46AM 49.9530 -7.5090 279° West 458 527 33,000  Climbing FlightAware
07:46AM 49.9591 -7.5703 279° West 454 522 31,500 -2,760 Descending FlightAware UK
07:47AM 49.9649 -7.6287 279° West 454 522 31,500 3,000 Level FlightAware UK
07:47AM 49.9680 -7.6630 279° West 459 528 33,000  Climbing FlightAware
07:47AM 49.9742 -7.7262 279° West 454 522 31,500  Descending FlightAware UK
07:47AM 49.9780 -7.7680 278° West 457 526 33,000  Climbing FlightAware
07:47AM 49.9797 -7.7847 278° West 456 525 31,500 -4,740 Descending FlightAware UK
07:48AM 49.9852 -7.8431 278° West 456 525 31,500  Level FlightAware UK
07:48AM 49.9907 -7.9016 278° West 458 527 31,500 3,420 Level FlightAware UK
07:48AM 49.9930 -7.9220 278° West 457 526 33,000  Climbing FlightAware
07:48AM 49.9981 -7.9794 278° West 458 527 31,500 -2,700 Descending FlightAware UK
07:49AM 50.0068 -8.0371 283° West 458 527 31,500 3,060 Level FlightAware UK
07:49AM 50.0120 -8.0650 283° West 461 531 33,000  Climbing FlightAware
07:49AM 50.0229 -8.1327 283° West 458 527 31,500 -2,460 Descending FlightAware UK
07:49AM 50.0328 -8.1903 285° West 458 527 31,500 4,260 Level FlightAware UK
07:49AM 50.0340 -8.1950 285° West 461 531 33,000  Climbing FlightAware
07:50AM 50.0428 -8.2479 285° West 458 527 31,500 -2,760 Descending FlightAware UK
07:50AM 50.0529 -8.3053 285° West 458 527 31,500 3,600 Level FlightAware UK
07:50AM 50.0560 -8.3230 285° West 461 531 33,000  Climbing FlightAware
07:50AM 50.0664 -8.3818 285° West 456 525 31,500 -2,580 Descending FlightAware UK
07:51AM 50.0764 -8.4393 285° West 456 525 31,500 3,180 Level FlightAware UK
07:51AM 50.0810 -8.4630 285° West 460 529 33,000  Climbing FlightAware
07:51AM 50.0928 -8.5350 285° West 458 527 31,500 -2,400 Descending FlightAware UK
07:52AM 50.1027 -8.5924 285° West 462 532 31,500 4,500 Level FlightAware UK
07:52AM 50.1030 -8.5920 285° West 458 527 33,000  Climbing FlightAware
07:52AM 50.1125 -8.6497 285° West 464 534 31,500 -2,700 Descending FlightAware UK
07:52AM 50.1222 -8.7070 285° West 462 532 31,500 3,060 Level FlightAware UK
07:52AM 50.1280 -8.7390 285° West 455 524 33,000  Climbing FlightAware
07:53AM 50.1381 -8.8022 285° West 460 529 31,500 -2,460 Descending FlightAware UK
07:53AM 50.1476 -8.8591 285° West 458 527 31,500 4,260 Level FlightAware UK
07:53AM 50.1480 -8.8570 285° West 452 520 33,000  Climbing FlightAware
07:53AM 50.1571 -8.9157 285° West 458 527 31,500 -2,760 Descending FlightAware UK
07:54AM 50.1666 -8.9721 285° West 456 525 31,500 3,000 Level FlightAware UK
07:54AM 50.1720 -9.0050 285° West 449 517 33,000 1,680 Climbing FlightAware
07:54AM 50.1930 -9.1280 285° West 447 514 33,000  Level FlightAware
07:55AM 50.2130 -9.2500 284° West 445 512 33,000  Level FlightAware
07:56AM 50.2360 -9.3890 285° West 443 510 33,000  Level FlightAware
07:56AM 50.2540 -9.5030 284° West 443 510 33,000  Level FlightAware
07:57AM 50.2780 -9.6540 284° West 440 506 33,000  Level FlightAware
07:58AM 50.2990 -9.7830 284° West 441 507 33,000  Level FlightAware
07:59AM 50.3250 -9.9500 284° West 440 506 33,000  Level FlightAware
07:59AM 50.3420 -10.0610 284° West 440 506 33,000  Level FlightAware
08:00AM 50.3570 -10.1660 283° West 440 506 33,000  Level FlightAware
08:01AM 50.3850 -10.3350 285° West 441 507 33,000  Level FlightAware
08:02AM 50.4020 -10.4450 284° West 443 510 33,000  Level FlightAware
08:02AM 50.4170 -10.5510 283° West 443 510 33,000  Level FlightAware
08:03AM 50.4370 -10.6850 283° West 443 510 33,000  Level FlightAware
08:04AM 50.4520 -10.7910 283° West 443 510 33,000  Level FlightAware
08:04AM 50.4810 -10.9720 284° West 446 513 33,000  Level FlightAware
08:05AM 50.4990 -11.1010 282° West 446 513 33,000  Level FlightAware
08:06AM 50.5130 -11.2090 282° West 446 513 33,000  Level FlightAware
08:07AM 50.5320 -11.3440 283° West 446 513 33,000  Level FlightAware
08:07AM 50.5460 -11.4520 282° West 446 513 33,000  Level FlightAware
08:08AM 50.5610 -11.5600 282° West 446 513 33,000  Level FlightAware
08:09AM 50.5750 -11.6680 282° West 446 513 33,000  Level FlightAware
08:09AM 50.5900 -11.7760 282° West 446 513 33,000  Level FlightAware
08:10AM 50.6080 -11.9110 282° West 446 513 33,000  Level FlightAware
08:11AM 50.6230 -12.0190 282° West 446 513 33,000  Level FlightAware
08:11AM 50.6370 -12.1280 281° West 446 513 33,000  Level FlightAware
08:12AM 50.6480 -12.2090 282° West 446 513 33,000  Level FlightAware
08:13AM 50.6630 -12.3170 282° West 446 513 33,000  Level FlightAware
08:13AM 50.6770 -12.4250 282° West 446 513 33,000  Level FlightAware
08:14AM 50.6920 -12.5340 282° West 446 513 33,000  Level FlightAware
08:16AM 50.7486 -12.8246 287° West  Level Estimated
08:17AM 50.7828 -13.0028 287° West  Level Estimated
08:18AM 50.8168 -13.1814 287° West  Level Estimated
08:19AM 50.8505 -13.3601 287° West  Level Estimated
08:20AM 50.8840 -13.5392 287° West  Level Estimated
08:21AM 50.9171 -13.7184 286° West  Level Estimated
08:22AM 50.9500 -13.8980 286° West  Level Estimated
08:23AM 50.9827 -14.0778 286° West  Level Estimated
08:24AM 51.0150 -14.2578 286° West  Level Estimated
08:25AM 51.0471 -14.4381 286° West  Level Estimated
08:26AM 51.0789 -14.6187 286° West  Level Estimated
08:27AM 51.1104 -14.7995 286° West  Level Estimated
08:28AM 51.1416 -14.9805 285° West  Level Estimated
08:29AM 51.1726 -15.1618 285° West  Level Estimated
08:30AM 51.2032 -15.3433 285° West  Level Estimated
08:31AM 51.2336 -15.5251 285° West  Level Estimated
08:32AM 51.2637 -15.7071 285° West  Level Estimated
08:33AM 51.2935 -15.8893 285° West  Level Estimated
08:34AM 51.3231 -16.0718 285° West  Level Estimated
08:35AM 51.3523 -16.2545 284° West  Level Estimated
08:36AM 51.3813 -16.4375 284° West  Level Estimated
08:37AM 51.4100 -16.6207 284° West  Level Estimated
08:38AM 51.4384 -16.8041 284° West  Level Estimated
08:39AM 51.4665 -16.9877 284° West  Level Estimated
08:40AM 51.4944 -17.1716 284° West  Level Estimated
08:41AM 51.5219 -17.3556 284° West  Level Estimated
08:42AM 51.5491 -17.5399 283° West  Level Estimated
08:43AM 51.5761 -17.7245 283° West  Level Estimated
08:44AM 51.6028 -17.9092 283° West  Level Estimated
08:45AM 51.6292 -18.0942 283° West  Level Estimated
08:46AM 51.6553 -18.2793 283° West  Level Estimated
08:47AM 51.6810 -18.4647 283° West  Level Estimated
08:48AM 51.7066 -18.6503 283° West  Level Estimated
08:49AM 51.7318 -18.8361 282° West  Level Estimated
08:50AM 51.7579 -19.0308 282° West  Level Estimated
08:51AM 51.7836 -19.2257 282° West  Level Estimated
08:52AM 51.8091 -19.4208 282° West  Level Estimated
08:53AM 51.8342 -19.6162 282° West  Level Estimated
08:54AM 51.8590 -19.8117 282° West  Level Estimated
08:55AM 51.8834 -20.0075 282° West  Level Estimated
08:55AM 50.0000 -20.0000 257° West 425 489 33,000  Level ETMS Enhanced Traffic Management System
08:56AM 51.9076 -20.2035 281° West  Level Estimated
08:57AM 51.9314 -20.3997 281° West  Level Estimated
08:58AM 51.9548 -20.5961 281° West  Level Estimated
08:59AM 51.9780 -20.7927 281° West  Level Estimated
09:00AM 52.0008 -20.9895 281° West  Level Estimated
09:01AM 49.7765 -21.4254 256° West 425 489 33,000  Level FlightAware Transoceanic
09:02AM 49.7473 -21.6027 256° West 425 489 33,000  Level FlightAware Transoceanic
09:03AM 49.7179 -21.7797 256° West 425 489 33,000  Level FlightAware Transoceanic
09:04AM 49.6881 -21.9565 255° West 425 489 33,000  Level FlightAware Transoceanic
09:05AM 49.6582 -22.1331 255° West 425 489 33,000  Level FlightAware Transoceanic
09:06AM 49.6279 -22.3095 255° West 425 489 33,000  Level FlightAware Transoceanic
09:07AM 49.5974 -22.4856 255° West 425 489 33,000  Level FlightAware Transoceanic
09:08AM 49.5667 -22.6616 255° West 425 489 33,000  Level FlightAware Transoceanic
09:09AM 49.5356 -22.8373 255° West 425 489 33,000  Level FlightAware Transoceanic
09:10AM 49.5043 -23.0128 255° West 425 489 33,000  Level FlightAware Transoceanic
09:11AM 49.4727 -23.1880 254° West 425 489 33,000  Level FlightAware Transoceanic
09:12AM 49.4409 -23.3631 254° West 425 489 33,000  Level FlightAware Transoceanic
09:13AM 49.4088 -23.5379 254° West 425 489 33,000  Level FlightAware Transoceanic
09:14AM 49.3764 -23.7125 254° West 425 489 33,000  Level FlightAware Transoceanic
09:15AM 49.3438 -23.8868 254° West 425 489 33,000  Level FlightAware Transoceanic
09:16AM 49.3109 -24.0609 254° West 425 489 33,000  Level FlightAware Transoceanic
09:17AM 49.2777 -24.2348 254° West 425 489 33,000  Level FlightAware Transoceanic
09:18AM 49.2443 -24.4084 254° West 425 489 33,000  Level FlightAware Transoceanic
09:19AM 49.2107 -24.5819 253° West 425 489 33,000  Level FlightAware Transoceanic
09:20AM 49.1767 -24.7550 253° West 425 489 33,000  Level FlightAware Transoceanic
09:21AM 49.1425 -24.9280 253° West 425 489 33,000  Level FlightAware Transoceanic
09:22AM 49.1081 -25.1007 253° West 425 489 33,000  Level FlightAware Transoceanic
09:23AM 49.0734 -25.2731 253° West 425 489 33,000  Level FlightAware Transoceanic
09:24AM 49.0384 -25.4453 253° West 425 489 33,000  Level FlightAware Transoceanic
09:25AM 49.0032 -25.6173 253° West 425 489 33,000  Level FlightAware Transoceanic
09:26AM 48.9677 -25.7890 252° West 425 489 33,000  Level FlightAware Transoceanic
09:27AM 48.9320 -25.9605 252° West 425 489 33,000  Level FlightAware Transoceanic
09:28AM 48.8960 -26.1317 252° West 425 489 33,000  Level FlightAware Transoceanic
09:29AM 48.8598 -26.3027 252° West 425 489 33,000  Level FlightAware Transoceanic
09:30AM 48.8233 -26.4735 252° West 425 489 33,000  Level FlightAware Transoceanic
09:31AM 48.7866 -26.6440 252° West 425 489 33,000  Level FlightAware Transoceanic
09:32AM 48.7496 -26.8142 252° West 425 489 33,000  Level FlightAware Transoceanic
09:33AM 48.7123 -26.9842 252° West 425 489 33,000  Level FlightAware Transoceanic
09:34AM 48.6748 -27.1539 251° West 425 489 33,000  Level FlightAware Transoceanic
09:35AM 48.6371 -27.3234 251° West 425 489 33,000  Level FlightAware Transoceanic
09:36AM 48.5991 -27.4926 251° West 425 489 33,000  Level FlightAware Transoceanic
09:37AM 48.5609 -27.6616 251° West 425 489 33,000  Level FlightAware Transoceanic
09:38AM 48.5224 -27.8303 251° West 425 489 33,000  Level FlightAware Transoceanic
09:39AM 48.4837 -27.9988 251° West 425 489 33,000  Level FlightAware Transoceanic
09:40AM 48.4447 -28.1670 251° West 425 489 33,000  Level FlightAware Transoceanic
09:41AM 48.4055 -28.3350 251° West 425 489 33,000  Level FlightAware Transoceanic
09:42AM 48.3660 -28.5026 250° West 425 489 33,000  Level FlightAware Transoceanic
09:43AM 48.3263 -28.6701 250° West 425 489 33,000  Level FlightAware Transoceanic
09:44AM 48.2864 -28.8372 250° West 425 489 33,000  Level FlightAware Transoceanic
09:45AM 48.2462 -29.0041 250° West 425 489 33,000  Level FlightAware Transoceanic
09:46AM 48.2057 -29.1708 250° West 425 489 33,000  Level FlightAware Transoceanic
09:47AM 48.1651 -29.3372 250° West 425 489 33,000  Level FlightAware Transoceanic
09:48AM 48.1242 -29.5033 250° West 425 489 33,000  Level FlightAware Transoceanic
09:49AM 48.0830 -29.6691 250° West 425 489 33,000  Level FlightAware Transoceanic
09:50AM 48.0416 -29.8347 249° West 425 489 33,000  Level FlightAware Transoceanic
09:51AM 47.9982 -30.0072 249° West  Level FlightAware Approximate
09:52AM 47.9991 -30.0154 265° West  Level FlightAware Approximate
09:53AM 47.9885 -30.1990 265° West  Level FlightAware Approximate
09:53AM 48.0000 -30.0000 265° West 431 496 33,000  Level ETMS Enhanced Traffic Management System
09:54AM 47.9775 -30.3825 265° West  Level FlightAware Approximate
09:55AM 47.9663 -30.5660 265° West  Level FlightAware Approximate
09:56AM 47.9547 -30.7493 265° West  Level FlightAware Approximate
09:57AM 47.9429 -30.9326 265° West  Level FlightAware Approximate
09:58AM 47.9308 -31.1158 264° West  Level FlightAware Approximate
09:59AM 47.9004 -31.6020 264° West 431 496 33,000  Level FlightAware Transoceanic
10:00AM 47.8880 -31.7796 264° West 431 496 33,000  Level FlightAware Transoceanic
10:01AM 47.8753 -31.9571 264° West 431 496 33,000  Level FlightAware Transoceanic
10:02AM 47.8623 -32.1345 264° West 431 496 33,000  Level FlightAware Transoceanic
10:03AM 47.8490 -32.3118 264° West 431 496 33,000  Level FlightAware Transoceanic
10:04AM 47.8355 -32.4891 263° West 431 496 33,000  Level FlightAware Transoceanic
10:05AM 47.8217 -32.6662 263° West 431 496 33,000  Level FlightAware Transoceanic
10:06AM 47.8076 -32.8433 263° West 431 496 33,000  Level FlightAware Transoceanic
10:07AM 47.7933 -33.0202 263° West 431 496 33,000  Level FlightAware Transoceanic
10:08AM 47.7786 -33.1971 263° West 431 496 33,000  Level FlightAware Transoceanic
10:09AM 47.7637 -33.3739 263° West 431 496 33,000  Level FlightAware Transoceanic
10:10AM 47.7486 -33.5505 263° West 431 496 33,000  Level FlightAware Transoceanic
10:11AM 47.7331 -33.7271 263° West 431 496 33,000  Level FlightAware Transoceanic
10:12AM 47.7174 -33.9035 262° West 431 496 33,000  Level FlightAware Transoceanic
10:13AM 47.7015 -34.0799 262° West 431 496 33,000  Level FlightAware Transoceanic
10:14AM 47.6852 -34.2561 262° West 431 496 33,000  Level FlightAware Transoceanic
10:15AM 47.6687 -34.4322 262° West 431 496 33,000  Level FlightAware Transoceanic
10:16AM 47.6519 -34.6082 262° West 431 496 33,000  Level FlightAware Transoceanic
10:17AM 47.6349 -34.7841 262° West 431 496 33,000  Level FlightAware Transoceanic
10:18AM 47.6175 -34.9599 262° West 431 496 33,000  Level FlightAware Transoceanic
10:19AM 47.5999 -35.1356 261° West 431 496 33,000  Level FlightAware Transoceanic
10:20AM 47.5821 -35.3111 261° West 431 496 33,000  Level FlightAware Transoceanic
10:21AM 47.5640 -35.4865 261° West 431 496 33,000  Level FlightAware Transoceanic
10:22AM 47.5456 -35.6618 261° West 431 496 33,000  Level FlightAware Transoceanic
10:23AM 47.5269 -35.8370 261° West 431 496 33,000  Level FlightAware Transoceanic
10:24AM 47.5080 -36.0120 261° West 431 496 33,000  Level FlightAware Transoceanic
10:25AM 47.4888 -36.1870 261° West 431 496 33,000  Level FlightAware Transoceanic
10:26AM 47.4693 -36.3618 261° West 431 496 33,000  Level FlightAware Transoceanic
10:27AM 47.4496 -36.5364 260° West 431 496 33,000  Level FlightAware Transoceanic
10:28AM 47.4296 -36.7110 260° West 431 496 33,000  Level FlightAware Transoceanic
10:29AM 47.4094 -36.8854 260° West 431 496 33,000  Level FlightAware Transoceanic
10:30AM 47.3889 -37.0596 260° West 431 496 33,000  Level FlightAware Transoceanic
10:31AM 47.3681 -37.2337 260° West 431 496 33,000  Level FlightAware Transoceanic
10:32AM 47.3470 -37.4077 260° West 431 496 33,000  Level FlightAware Transoceanic
10:33AM 47.3257 -37.5816 260° West 431 496 33,000  Level FlightAware Transoceanic
10:34AM 47.3041 -37.7553 260° West 431 496 33,000  Level FlightAware Transoceanic
10:35AM 47.2823 -37.9289 259° West 431 496 33,000  Level FlightAware Transoceanic
10:36AM 47.2602 -38.1023 259° West 431 496 33,000  Level FlightAware Transoceanic
10:37AM 47.2379 -38.2756 259° West 431 496 33,000  Level FlightAware Transoceanic
10:38AM 47.2152 -38.4487 259° West 431 496 33,000  Level FlightAware Transoceanic
10:39AM 47.1924 -38.6217 259° West 431 496 33,000  Level FlightAware Transoceanic
10:40AM 47.1692 -38.7945 259° West 431 496 33,000  Level FlightAware Transoceanic
10:41AM 47.1458 -38.9672 259° West 431 496 33,000  Level FlightAware Transoceanic
10:42AM 47.1222 -39.1397 259° West 431 496 33,000  Level FlightAware Transoceanic
10:43AM 47.0982 -39.3121 258° West 431 496 33,000  Level FlightAware Transoceanic
10:44AM 47.0741 -39.4843 258° West 431 496 33,000  Level FlightAware Transoceanic
10:45AM 47.0496 -39.6564 258° West 431 496 33,000  Level FlightAware Transoceanic
10:46AM 47.0249 -39.8283 258° West 431 496 33,000  Level FlightAware Transoceanic
10:47AM 46.9992 -40.0052 258° West  Level FlightAware Approximate
10:48AM 46.9985 -40.0103 258° West  Level FlightAware Approximate
10:48AM 47.0000 -40.0000 258° West 440 506 33,000  Level ETMS Enhanced Traffic Management System
10:49AM 46.9718 -40.1868 258° West  Level FlightAware Approximate
10:50AM 46.9448 -40.3631 257° West  Level FlightAware Approximate
10:51AM 46.9178 -40.5382 257° West  Level FlightAware Approximate
10:52AM 46.8904 -40.7132 257° West  Level FlightAware Approximate
10:53AM 46.8629 -40.8880 257° West  Level FlightAware Approximate
10:54AM 46.8350 -41.0625 257° West  Level FlightAware Approximate
10:55AM 46.7522 -41.5706 256° West 440 506 33,000  Level FlightAware Transoceanic
10:56AM 46.7234 -41.7442 256° West 440 506 33,000  Level FlightAware Transoceanic
10:57AM 46.6943 -41.9176 256° West 440 506 33,000  Level FlightAware Transoceanic
10:58AM 46.6649 -42.0908 256° West 440 506 33,000  Level FlightAware Transoceanic
10:59AM 46.6353 -42.2639 256° West 440 506 33,000  Level FlightAware Transoceanic
11:00AM 46.6054 -42.4367 256° West 440 506 33,000  Level FlightAware Transoceanic
11:01AM 46.5752 -42.6094 256° West 440 506 33,000  Level FlightAware Transoceanic
11:02AM 46.5448 -42.7818 256° West 440 506 33,000  Level FlightAware Transoceanic
11:03AM 46.5141 -42.9541 255° West 440 506 33,000  Level FlightAware Transoceanic
11:04AM 46.4832 -43.1262 255° West 440 506 33,000  Level FlightAware Transoceanic
11:05AM 46.4520 -43.2980 255° West 440 506 33,000  Level FlightAware Transoceanic
11:06AM 46.4206 -43.4697 255° West 440 506 33,000  Level FlightAware Transoceanic
11:07AM 46.3889 -43.6412 255° West 440 506 33,000  Level FlightAware Transoceanic
11:08AM 46.3569 -43.8125 255° West 440 506 33,000  Level FlightAware Transoceanic
11:09AM 46.3247 -43.9836 255° West 440 506 33,000  Level FlightAware Transoceanic
11:10AM 46.2922 -44.1544 255° West 440 506 33,000  Level FlightAware Transoceanic
11:11AM 46.2595 -44.3251 254° West 440 506 33,000  Level FlightAware Transoceanic
11:12AM 46.2265 -44.4956 254° West 440 506 33,000  Level FlightAware Transoceanic
11:13AM 46.1933 -44.6659 254° West 440 506 33,000  Level FlightAware Transoceanic
11:14AM 46.1598 -44.8359 254° West 440 506 33,000  Level FlightAware Transoceanic
11:15AM 46.1261 -45.0058 254° West 440 506 33,000  Level FlightAware Transoceanic
11:16AM 46.0921 -45.1754 254° West 440 506 33,000  Level FlightAware Transoceanic
11:17AM 46.0578 -45.3448 254° West 440 506 33,000  Level FlightAware Transoceanic
11:18AM 46.0234 -45.5141 254° West 440 506 33,000  Level FlightAware Transoceanic
11:19AM 45.9886 -45.6831 253° West 440 506 33,000  Level FlightAware Transoceanic
11:20AM 45.9536 -45.8519 253° West 440 506 33,000  Level FlightAware Transoceanic
11:21AM 45.9184 -46.0205 253° West 440 506 33,000  Level FlightAware Transoceanic
11:22AM 45.8829 -46.1888 253° West 440 506 33,000  Level FlightAware Transoceanic
11:23AM 45.8472 -46.3570 253° West 440 506 33,000  Level FlightAware Transoceanic
11:24AM 45.8112 -46.5249 253° West 440 506 33,000  Level FlightAware Transoceanic
11:25AM 45.7750 -46.6926 253° West 440 506 33,000  Level FlightAware Transoceanic
11:26AM 45.7385 -46.8601 253° West 440 506 33,000  Level FlightAware Transoceanic
11:27AM 45.7018 -47.0274 252° West 440 506 33,000  Level FlightAware Transoceanic
11:28AM 45.6649 -47.1945 252° West 440 506 33,000  Level FlightAware Transoceanic
11:29AM 45.6277 -47.3613 252° West 440 506 33,000  Level FlightAware Transoceanic
11:30AM 45.5902 -47.5279 252° West 440 506 33,000  Level FlightAware Transoceanic
11:31AM 45.5526 -47.6943 252° West 440 506 33,000  Level FlightAware Transoceanic
11:32AM 45.5146 -47.8605 252° West 440 506 33,000  Level FlightAware Transoceanic
11:33AM 45.4765 -48.0264 252° West 440 506 33,000  Level FlightAware Transoceanic
11:34AM 45.4381 -48.1922 252° West 440 506 33,000  Level FlightAware Transoceanic
11:35AM 45.3994 -48.3577 252° West 440 506 33,000  Level FlightAware Transoceanic
11:36AM 45.3606 -48.5229 251° West 440 506 33,000  Level FlightAware Transoceanic
11:37AM 45.3214 -48.6880 251° West 440 506 33,000  Level FlightAware Transoceanic
11:38AM 45.2821 -48.8528 251° West 440 506 33,000  Level FlightAware Transoceanic
11:39AM 45.2425 -49.0174 251° West 440 506 33,000  Level FlightAware Transoceanic
11:40AM 45.2027 -49.1817 251° West 440 506 33,000  Level FlightAware Transoceanic
11:41AM 45.1626 -49.3458 251° West 440 506 33,000  Level FlightAware Transoceanic
11:42AM 45.1223 -49.5097 251° West 440 506 33,000  Level FlightAware Transoceanic
11:42AM 45.0000 -50.0000 265° West 426 490 33,000  Level ETMS Enhanced Traffic Management System
11:43AM 45.0818 -49.6734 251° West 440 506 33,000  Level FlightAware Transoceanic
11:43AM 44.9667 -50.3333 264° West 480 552 33,000  Level Gander Center
11:44AM 45.0410 -49.8368 250° West 440 506 33,000  Level FlightAware Transoceanic
11:44AM 44.9667 -50.5167 270° West 490 564 33,000 780 Level Gander Center
11:45AM 45.0007 -49.9971 250° West  Level FlightAware Approximate
11:45AM 44.9833 -50.7000 277° West 470 541 34,600  Level Gander Center
11:46AM 44.9895 -50.1663 265° West  Level FlightAware Approximate
11:46AM 45.0000 -50.9000 277° West 480 552 35,600  Level Gander Center
11:47AM 44.9786 -50.3357 265° West  Level FlightAware Approximate
11:47AM 45.0167 -51.0833 277° West 480 552 36,000  Level Gander Center
11:48AM 44.9674 -50.5049 265° West  Level FlightAware Approximate
11:48AM 45.0333 -51.2667 277° West 460 529 36,000  Level Gander Center
11:49AM 44.9319 -51.0181 264° West  Level FlightAware Approximate
11:49AM 45.0667 -51.4000 290° West 460 529 36,000  Level Gander Center
11:50AM 45.0833 -51.5833 277° West 470 541 36,000  Level Gander Center
11:51AM 45.1000 -51.7167 280° West 460 529 36,000  Level Moncton Center
11:52AM 45.1167 -51.8833 278° West 460 529 36,000  Level Moncton Center
11:52AM 45.1167 -51.9333 270° West 460 529 36,000  Level Gander Center
11:53AM 45.1333 -52.1167 277° West 460 529 36,000  Level Gander Center
11:54AM 45.1667 -52.3000 285° West 470 541 36,000  Level Gander Center
11:55AM 45.1833 -52.4667 278° West 460 529 36,000  Level Gander Center
11:56AM 45.2167 -52.6500 285° West 460 529 36,000  Level Gander Center
11:57AM 45.2333 -52.8167 278° West 460 529 36,000  Level Gander Center
11:58AM 45.2667 -53.0000 285° West 470 541 36,000  Level Gander Center
11:59AM 45.2667 -53.1333 270° West 460 529 36,000  Level Moncton Center
11:59AM 45.2833 -53.2000 290° West 460 529 36,000  Level Gander Center
12:05PM 45.4120 -54.3280 290° West 457 526 36,000  Level FlightAware
12:06PM 45.4210 -54.4220 278° West 457 526 36,000  Level FlightAware
12:07PM 45.4310 -54.5210 278° West 457 526 36,000  Level FlightAware
12:07PM 45.4410 -54.6220 278° West 457 526 36,000  Level FlightAware
12:08PM 45.4490 -54.6980 279° West 457 526 36,000  Level FlightAware
12:08PM 45.4590 -54.8000 278° West 457 526 36,000  Level FlightAware
12:09PM 45.4710 -54.9270 278° West 457 526 36,000  Level FlightAware
12:10PM 45.4790 -55.0030 279° West 457 526 36,000  Level FlightAware
12:11PM 45.4910 -55.1300 278° West 457 526 36,000  Level FlightAware
12:11PM 45.5010 -55.2310 278° West 457 526 36,000  Level FlightAware
12:12PM 45.5110 -55.3330 278° West 457 526 36,000  Level FlightAware
12:13PM 45.5240 -55.4600 278° West 457 526 36,000  Level FlightAware
12:13PM 45.5310 -55.5360 278° West 457 526 36,000  Level FlightAware
12:14PM 45.5460 -55.6890 278° West 457 526 36,000  Level FlightAware
12:15PM 45.5560 -55.7900 278° West 457 526 36,000  Level FlightAware
12:16PM 45.5660 -55.8920 278° West 457 526 36,000  Level FlightAware
12:16PM 45.5667 -56.1667 278° West 450 518 36,000  Level Moncton Center
12:16PM 45.6000 -56.2500 300° West 450 518 36,000  Level Gander Center
12:17PM 45.6000 -56.4167 270° West 450 518 36,000  Level Gander Center
12:18PM 45.6167 -56.5167 283° West 450 518 36,000  Level Moncton Center
12:24PM 45.7110 -57.6730 283° West 438 504 36,000  Level FlightAware
12:25PM 45.7200 -57.7990 276° West 436 502 36,000  Level FlightAware
12:25PM 45.7260 -57.8750 276° West 436 502 36,000  Level FlightAware
12:26PM 45.7350 -57.9990 276° West 435 501 36,000  Level FlightAware
12:27PM 45.7430 -58.1150 276° West 434 499 36,000  Level FlightAware
12:27PM 45.7490 -58.2010 276° West 434 499 36,000  Level FlightAware
12:28PM 45.7590 -58.3440 276° West 433 498 36,000  Level FlightAware
12:29PM 45.7660 -58.4550 275° West 431 496 36,000  Level FlightAware
12:29PM 45.7720 -58.5390 276° West 431 496 36,000  Level FlightAware
12:30PM 45.7790 -58.6440 275° West 430 495 36,000  Level FlightAware
12:31PM 45.7870 -58.7680 275° West 429 494 36,000  Level FlightAware
12:31PM 45.7920 -58.8540 275° West 429 494 36,000  Level FlightAware
12:32PM 45.7980 -58.9370 276° West 429 494 36,000  Level FlightAware
12:33PM 45.8070 -59.0890 275° West 429 494 36,000  Level FlightAware
12:33PM 45.8130 -59.1800 275° West 430 495 36,000  Level FlightAware
12:34PM 45.8200 -59.2940 275° West 430 495 36,000  Level FlightAware
12:34PM 45.8250 -59.3790 275° West 430 495 36,000  Level FlightAware
12:35PM 45.8310 -59.4920 274° West 430 495 36,000  Level FlightAware
12:36PM 45.8380 -59.6070 275° West 430 495 36,000  Level FlightAware
12:36PM 45.8430 -59.7000 274° West 431 496 36,000  Level FlightAware
12:37PM 45.8510 -59.8450 275° West 430 495 36,000  Level FlightAware
12:38PM 45.8560 -59.9290 275° West 430 495 36,000  Level FlightAware
12:38PM 45.8610 -60.0160 275° West 430 495 36,000  Level FlightAware
12:39PM 45.8670 -60.1460 274° West 431 496 36,000  Level FlightAware
12:40PM 45.8750 -60.2870 275° West 432 497 36,000  Level FlightAware
12:40PM 45.8810 -60.4010 274° West 433 498 36,000  Level FlightAware
12:41PM 45.8860 -60.5170 274° West 434 499 36,000  Level FlightAware
12:41PM 45.8900 -60.6030 274° West 435 501 36,000  Level FlightAware
12:42PM 45.8970 -60.7300 275° West 434 499 36,000  Level FlightAware
12:43PM 45.9010 -60.8280 273° West 434 499 36,000  Level FlightAware
12:43PM 45.9060 -60.9310 274° West 434 499 36,000  Level FlightAware
12:44PM 45.9120 -61.0750 273° West 434 499 36,000  Level FlightAware
12:45PM 45.9160 -61.1660 274° West 434 499 36,000  Level FlightAware
12:46PM 45.9220 -61.3030 274° West 434 499 36,000  Level FlightAware
12:46PM 45.9250 -61.3700 274° West 434 499 36,000  Level FlightAware
12:47PM 45.9290 -61.4900 273° West 434 499 36,000  Level FlightAware
12:47PM 45.9330 -61.5880 273° West 434 499 36,000  Level FlightAware
12:48PM 45.9360 -61.6860 273° West 434 499 36,000  Level FlightAware
12:49PM 45.9390 -61.7600 273° West 434 499 36,000  Level FlightAware
12:49PM 45.9430 -61.8580 273° West 434 499 36,000  Level FlightAware
12:50PM 45.9480 -62.0050 273° West 434 499 36,000  Level FlightAware
12:55PM 45.9750 -62.7400 273° West 434 499 36,000  Level FlightAware
12:56PM 45.9770 -62.8140 272° West 434 499 36,000  Level FlightAware
01:00PM 45.9980 -63.7180 272° West 433 498 36,000  Level FlightAware
01:00PM 45.9990 -63.8080 271° West 433 498 36,000  Level FlightAware
01:01PM 46.0020 -63.9090 272° West 433 498 36,000  Level FlightAware
01:02PM 46.0060 -64.0930 272° West 433 498 36,000  Level FlightAware
01:02PM 46.0080 -64.2090 271° West 432 497 36,000  Level FlightAware
01:03PM 46.0090 -64.3010 271° West 432 497 36,000  Level FlightAware
01:04PM 46.0110 -64.4290 271° West 433 498 36,000  Level FlightAware
01:04PM 46.0120 -64.5240 271° West 433 498 36,000  Level FlightAware
01:05PM 46.0140 -64.6290 272° West 434 499 36,000  Level FlightAware
01:05PM 46.0150 -64.7410 271° West 434 499 36,000  Level FlightAware
01:06PM 46.0160 -64.8380 271° West 435 501 36,000  Level FlightAware
01:07PM 46.0170 -64.9530 271° West 436 502 36,000  Level FlightAware
01:07PM 46.0170 -65.0440 270° West 436 502 36,000  Level FlightAware
01:08PM 46.0190 -65.1530 272° West 438 504 36,000  Level FlightAware
01:08PM 46.0200 -65.2590 271° West 438 504 36,000  Level FlightAware
01:09PM 46.0210 -65.3900 271° West 439 505 36,000  Level FlightAware
01:10PM 46.0220 -65.4930 271° West 439 505 36,000  Level FlightAware
01:11PM 46.0220 -65.6180 270° West 440 506 36,000  Level FlightAware
01:11PM 46.0230 -65.7140 271° West 441 507 36,000  Level FlightAware
01:12PM 46.0230 -65.8310 270° West 441 507 36,000  Level FlightAware
01:12PM 46.0230 -65.9430 270° West 442 509 36,000  Level FlightAware
01:13PM 46.0230 -66.0470 270° West 443 510 36,000  Level FlightAware
01:14PM 46.0230 -66.1800 270° West 444 511 36,000  Level FlightAware
01:15PM 46.0230 -66.3420 270° West 446 513 36,000  Level FlightAware
01:15PM 46.0230 -66.4620 270° West 447 514 36,000  Level FlightAware
01:16PM 46.0220 -66.5660 269° West 447 514 36,000  Level FlightAware
01:16PM 46.0220 -66.6630 270° West 448 516 36,000  Level FlightAware
01:17PM 46.0210 -66.7630 269° West 450 518 36,000  Level FlightAware
01:18PM 46.0210 -66.8950 270° West 452 520 36,000  Level FlightAware
01:18PM 46.0200 -67.0110 269° West 453 521 36,000  Level FlightAware
01:19PM 46.0190 -67.1490 269° West 454 522 36,000  Level FlightAware
01:20PM 46.0180 -67.2540 269° West 456 525 36,000  Level FlightAware
01:20PM 46.0160 -67.3770 269° West 458 527 36,000  Level FlightAware
01:21PM 46.0150 -67.4640 269° West 461 531 36,000  Level FlightAware
01:22PM 46.0140 -67.6050 269° West 462 532 36,000  Level FlightAware
01:22PM 46.0110 -67.7620 268° West 464 534 36,000  Level FlightAware
01:23PM 46.0100 -67.8690 269° West 465 535 36,000  Level FlightAware
01:24PM 46.0080 -67.9920 269° West 465 535 36,000  Level FlightAware
01:24PM 46.0060 -68.0990 268° West 465 535 36,000  Level FlightAware
01:25PM 46.0040 -68.1900 268° West 465 535 36,000  Level FlightAware
01:25PM 46.0020 -68.2900 268° West 466 536 36,000  Level FlightAware
01:26PM 46.0000 -68.4230 269° West 465 535 36,000  Level FlightAware
01:27PM 45.9970 -68.5450 268° West 464 534 36,000  Level FlightAware
01:27PM 45.9950 -68.6520 268° West 464 534 36,000  Level FlightAware
01:28PM 45.9920 -68.7740 268° West 465 535 36,000  Level FlightAware
01:28PM 45.9900 -68.8680 268° West 465 535 36,000  Level FlightAware
01:29PM 45.9880 -68.9610 268° West 465 535 36,000  Level FlightAware
01:30PM 45.9840 -69.1000 268° West 466 536 36,000  Level FlightAware
01:30PM 45.9820 -69.1910 268° West 467 537 36,000  Level FlightAware
01:31PM 45.9790 -69.3000 268° West 467 537 36,000  Level FlightAware
01:31PM 45.9750 -69.4230 267° West 467 537 36,000  Level FlightAware
01:32PM 45.9720 -69.5470 268° West 466 536 36,000  Level FlightAware
01:33PM 45.9680 -69.6700 267° West 465 535 36,000  Level FlightAware
01:34PM 45.9630 -69.8060 267° West 464 534 36,000  Level FlightAware
01:34PM 45.9580 -69.9600 267° West 463 533 36,000  Level FlightAware
01:35PM 45.9550 -70.0530 267° West 462 532 36,000  Level FlightAware
01:35PM 45.9520 -70.1440 267° West 462 532 36,000  Level FlightAware
01:36PM 45.9480 -70.2500 267° West 462 532 36,000  Level FlightAware
01:37PM 45.9440 -70.3570 267° West 461 531 36,000  Level FlightAware
01:37PM 45.9400 -70.4640 267° West 461 531 36,000  Level FlightAware
01:38PM 45.9340 -70.6320 267° West 460 529 36,000  Level FlightAware
01:39PM 45.9300 -70.7380 267° West 460 529 36,000 -240 Level FlightAware
01:39PM 45.9260 -70.8280 266° West 454 522 35,800 -900 Descending FlightAware
01:40PM 45.9160 -70.9610 264° West 443 510 34,900 -1,440 Descending FlightAware
01:40PM 45.9080 -71.0480 263° West 436 502 34,000 -1,980 Descending FlightAware
01:41PM 45.8990 -71.1470 263° West 429 494 32,800 -2,040 Descending FlightAware
01:41PM 45.8910 -71.2310 262° West 424 488 31,800 -2,040 Descending FlightAware
01:42PM 45.8830 -71.3270 263° West 418 481 30,600 -1,980 Descending FlightAware
01:43PM 45.8750 -71.4220 263° West 411 473 29,500 -1,860 Descending FlightAware
01:43PM 45.8680 -71.5010 263° West 404 465 28,600 -1,860 Descending FlightAware
01:44PM 45.8570 -71.6190 262° West 394 453 27,200 -1,860 Descending FlightAware
01:45PM 45.8470 -71.7220 262° West 386 444 26,000 -1,800 Descending FlightAware
01:45PM 45.8420 -71.7850 264° West 381 438 25,300 -1,740 Descending FlightAware
01:46PM 45.8290 -71.9200 262° West 371 427 23,700 -1,740 Descending FlightAware
01:46PM 45.8210 -72.0030 262° West 365 420 22,700 -1,680 Descending FlightAware
01:47PM 45.8140 -72.0750 262° West 361 415 21,900 -1,680 Descending FlightAware
01:48PM 45.8050 -72.1690 262° West 355 409 20,800 -1,740 Descending FlightAware
01:48PM 45.7950 -72.2720 262° West 349 402 19,500 -1,680 Descending FlightAware
01:49PM 45.7850 -72.3730 262° West 343 395 18,300 -1,800 Descending FlightAware
01:50PM 45.7770 -72.4520 262° West 345 397 17,100 -1,860 Descending FlightAware
01:50PM 45.7680 -72.5420 262° West 339 390 16,000 -1,680 Descending FlightAware
01:51PM 45.7610 -72.6170 262° West 335 386 15,000 -1,680 Descending FlightAware
01:52PM 45.7530 -72.6940 262° West 331 381 14,100 -1,680 Descending FlightAware
01:52PM 45.7460 -72.7610 262° West 328 377 13,200 -1,740 Descending FlightAware
01:53PM 45.7400 -72.8240 262° West 324 373 12,400 -1,560 Descending FlightAware
01:53PM 45.7310 -72.9070 261° West 319 367 11,400 -1,560 Descending FlightAware
01:54PM 45.7240 -72.9790 262° West 315 362 10,500 -1,500 Descending FlightAware
01:54PM 45.7180 -73.0320 261° West 307 353 9,900 -840 Descending FlightAware
01:55PM 45.7110 -73.0950 261° West 279 321 9,700 -600 Descending FlightAware
01:55PM 45.7060 -73.1330 259° West 274 315 9,400 -1,200 Descending FlightAware
01:56PM 45.6970 -73.1850 256° West 268 308 8,700 -1,620 Descending FlightAware
01:56PM 45.6850 -73.2450 254° West 262 302 7,700 -1,800 Descending FlightAware
01:57PM 45.6750 -73.2950 254° West 260 299 6,800 -1,800 Descending FlightAware
01:57PM 45.6650 -73.3450 254° West 260 299 5,900 -1,140 Descending FlightAware
01:58PM 45.6560 -73.3950 256° West 257 296 5,700 -780 Descending FlightAware
01:58PM 45.6480 -73.4320 253° West 243 280 5,200 -1,200 Descending FlightAware
01:59PM 45.6410 -73.4710 256° West 230 265 4,700 -1,380 Descending FlightAware
01:59PM 45.6350 -73.5000 254° West 225 259 4,200 -1,440 Descending FlightAware
01:59PM 45.6290 -73.5130 237° Southwest 218 251 4,000 -540 Descending FlightAware
02:00PM 45.6060 -73.5460 225° Southwest 205 236 3,800 -780 Descending FlightAware
02:00PM 45.5930 -73.5640 224° Southwest 208 239 3,300 -1,500 Descending FlightAware
02:00PM 45.5740 -73.5880 221° Southwest 207 238 2,700 -1,440 Descending FlightAware
02:01PM 45.5540 -73.6140 222° Southwest 197 227 2,000 -1,320 Descending FlightAware
02:01PM 45.5350 -73.6400 224° Southwest 175 201 1,400 -1,020 Descending FlightAware
02:02PM 45.5150 -73.6660 222° Southwest 161 185 900 -780 Descending FlightAware
02:02PM 45.5060 -73.6790 225° Southwest 147 169 700 -720 Descending FlightAware
02:03PM 45.4940 -73.6940 221° Southwest 147 169 400 -720 Descending FlightAware
02:03PM 45.4820 -73.7100 223° Southwest 146 168 100 -720 Descending FlightAware